createdAt,value
2018-07-23T00:02:12.260Z,21.38
2018-07-23T00:04:42.106Z,21.40
2018-07-23T00:07:12.093Z,21.48
2018-07-23T00:09:42.108Z,21.46
2018-07-23T00:12:11.998Z,21.35
2018-07-23T00:14:42.076Z,21.24
2018-07-23T00:17:12.414Z,21.17
2018-07-23T00:19:42.455Z,21.06
2018-07-23T00:22:12.280Z,20.97
2018-07-23T00:24:42.499Z,20.98
2018-07-23T00:27:12.404Z,20.92
2018-07-23T00:29:42.515Z,20.86
2018-07-23T00:32:12.627Z,20.83
2018-07-23T00:34:42.599Z,20.82
2018-07-23T00:37:12.628Z,20.85
2018-07-23T00:39:42.464Z,20.87
2018-07-23T00:42:12.570Z,21.07
2018-07-23T00:44:42.584Z,20.91
2018-07-23T00:47:12.443Z,20.71
2018-07-23T00:49:42.660Z,20.62
2018-07-23T00:52:12.588Z,20.67
2018-07-23T00:54:42.713Z,20.75
2018-07-23T00:57:12.621Z,20.81
2018-07-23T00:59:42.561Z,20.90
2018-07-23T01:02:12.692Z,20.94
2018-07-23T01:04:42.651Z,20.91
2018-07-23T01:07:12.734Z,20.93
2018-07-23T01:09:42.876Z,21.01
2018-07-23T01:12:13.186Z,21.07
2018-07-23T01:14:43.526Z,21.07
2018-07-23T01:17:13.595Z,21.05
2018-07-23T01:19:43.491Z,21.08
2018-07-23T01:22:13.638Z,21.16
2018-07-23T01:24:44.023Z,21.20
2018-07-23T01:27:14.198Z,21.20
2018-07-23T01:29:44.304Z,21.27
2018-07-23T01:32:14.452Z,21.28
2018-07-23T01:34:44.577Z,21.16
2018-07-23T01:37:14.657Z,21.02
2018-07-23T01:39:45.412Z,21.08
2018-07-23T01:42:15.386Z,21.43
2018-07-23T01:44:45.403Z,21.51
2018-07-23T01:47:15.659Z,21.54
2018-07-23T01:49:45.652Z,21.56
2018-07-23T01:52:15.599Z,21.52
2018-07-23T01:54:45.676Z,21.54
2018-07-23T01:57:15.633Z,21.40
2018-07-23T01:59:45.484Z,21.42
2018-07-23T02:02:25.376Z,21.34
2018-07-23T02:04:55.502Z,21.19
2018-07-23T02:07:25.474Z,21.47
2018-07-23T02:09:55.497Z,21.55
2018-07-23T02:12:25.536Z,21.52
2018-07-23T02:14:55.572Z,21.48
2018-07-23T02:17:25.595Z,21.49
2018-07-23T02:19:55.527Z,21.54
2018-07-23T02:22:25.492Z,21.51
2018-07-23T02:24:55.560Z,21.40
2018-07-23T02:27:25.460Z,21.40
2018-07-23T02:29:55.396Z,21.26
2018-07-23T02:32:25.467Z,21.08
2018-07-23T02:34:56.592Z,21.03
2018-07-23T02:37:26.583Z,21.05
2018-07-23T02:39:56.611Z,21.08
2018-07-23T02:42:26.610Z,21.11
2018-07-23T02:44:56.647Z,21.21
2018-07-23T02:47:26.554Z,21.12
2018-07-23T02:49:56.576Z,20.86
2018-07-23T02:52:26.874Z,20.66
2018-07-23T02:54:57.818Z,20.46
2018-07-23T02:57:28.559Z,19.87
2018-07-23T03:00:08.260Z,19.47
2018-07-23T03:02:48.947Z,19.05
2018-07-23T03:05:20.298Z,18.89
2018-07-23T03:07:55.501Z,18.53
2018-07-23T03:10:38.795Z,18.37
2018-07-23T03:13:18.586Z,18.08
2018-07-23T03:15:57.025Z,18.03
2018-07-23T03:18:39.119Z,18.11
2018-07-23T03:21:26.268Z,17.99
2018-07-23T03:24:02.103Z,18.07
2018-07-23T03:26:33.083Z,18.23
2018-07-23T03:29:13.530Z,18.12
2018-07-23T03:35:05.225Z,17.87
2018-07-23T03:37:35.722Z,17.83
2018-07-23T03:40:07.795Z,17.65
2018-07-23T03:42:37.853Z,17.69
2018-07-23T03:45:08.635Z,17.75
2018-07-23T03:47:39.678Z,17.77
2018-07-23T03:50:16.296Z,17.58
2018-07-23T03:52:47.098Z,17.47
2018-07-23T03:55:18.457Z,17.33
2018-07-23T03:57:48.757Z,17.27
2018-07-23T04:00:18.971Z,17.61
2018-07-23T04:02:49.766Z,17.66
2018-07-23T04:05:20.632Z,17.65
2018-07-23T04:07:51.542Z,17.63
2018-07-23T04:10:22.330Z,17.63
2018-07-23T04:12:52.482Z,17.57
2018-07-23T04:15:22.540Z,17.58
2018-07-23T04:18:03.281Z,17.61
2018-07-23T04:20:35.945Z,17.66
2018-07-23T04:23:07.561Z,17.64
2018-07-23T04:25:37.880Z,17.60
2018-07-23T04:28:11.555Z,17.78
2018-07-23T04:30:47.371Z,17.62
2018-07-23T04:36:45.668Z,17.64
2018-07-23T04:39:15.904Z,17.79
2018-07-23T04:41:46.604Z,17.80
2018-07-23T04:44:16.993Z,17.92
2018-07-23T04:46:48.405Z,17.76
2018-07-23T04:49:18.696Z,17.69
2018-07-23T04:51:49.116Z,17.69
2018-07-23T04:54:19.432Z,17.74
2018-07-23T04:56:50.014Z,17.87
2018-07-23T04:59:20.316Z,18.08
2018-07-23T05:01:50.662Z,18.09
2018-07-23T05:04:20.688Z,18.14
2018-07-23T05:06:51.866Z,18.31
2018-07-23T05:09:23.203Z,18.21
2018-07-23T05:11:53.506Z,18.22
2018-07-23T05:14:23.887Z,18.29
2018-07-23T05:16:54.200Z,18.30
2018-07-23T05:19:24.972Z,18.22
2018-07-23T05:22:09.364Z,18.26
2018-07-23T05:24:40.225Z,18.38
2018-07-23T05:27:10.894Z,18.35
2018-07-23T05:29:41.259Z,18.42
2018-07-23T05:32:11.995Z,18.46
2018-07-23T05:34:42.435Z,18.54
2018-07-23T05:37:12.693Z,18.59
2018-07-23T05:39:42.966Z,18.66
2018-07-23T05:42:13.378Z,18.68
2018-07-23T05:44:43.944Z,18.74
2018-07-23T05:47:14.109Z,18.84
2018-07-23T05:49:44.892Z,18.94
2018-07-23T05:52:15.136Z,19.06
2018-07-23T05:54:45.043Z,19.24
2018-07-23T05:57:15.244Z,19.40
2018-07-23T05:59:45.392Z,19.59
2018-07-23T06:02:15.805Z,19.88
2018-07-23T06:04:46.143Z,20.21
2018-07-23T06:07:16.452Z,20.61
2018-07-23T06:09:46.776Z,21.10
2018-07-23T06:12:17.182Z,21.65
2018-07-23T06:14:47.437Z,21.96
2018-07-23T06:17:17.753Z,22.25
2018-07-23T06:19:48.877Z,22.78
2018-07-23T06:22:24.091Z,23.03
2018-07-23T06:24:54.590Z,23.27
2018-07-23T06:27:24.883Z,23.66
2018-07-23T06:29:56.274Z,23.86
2018-07-23T06:32:26.600Z,23.74
2018-07-23T06:34:59.720Z,24.33
2018-07-23T06:37:35.780Z,24.61
2018-07-23T06:40:31.002Z,24.62
2018-07-23T06:43:01.900Z,25.02
2018-07-23T06:45:33.155Z,25.68
2018-07-23T06:48:19.890Z,25.81
2018-07-23T06:50:51.434Z,25.90
2018-07-23T06:53:21.962Z,26.33
2018-07-23T06:55:52.631Z,26.08
2018-07-23T06:58:22.732Z,26.83
2018-07-23T07:00:53.365Z,27.25
2018-07-23T07:03:24.937Z,26.42
2018-07-23T07:05:56.641Z,26.21
2018-07-23T07:08:26.928Z,24.68
2018-07-23T07:10:57.191Z,25.48
2018-07-23T07:13:30.076Z,26.01
2018-07-23T07:16:00.055Z,25.97
2018-07-23T07:18:30.118Z,26.01
2018-07-23T07:21:00.771Z,26.64
2018-07-23T07:26:42.138Z,27.66
2018-07-23T07:29:13.975Z,26.14
2018-07-23T07:31:43.953Z,26.13
2018-07-23T07:34:13.910Z,26.85
2018-07-23T07:36:43.916Z,27.73
2018-07-23T07:39:14.220Z,27.06
2018-07-23T07:41:44.783Z,26.94
2018-07-23T07:44:16.061Z,26.10
2018-07-23T07:46:46.213Z,25.04
2018-07-23T07:49:16.244Z,24.40
2018-07-23T07:51:46.268Z,24.60
2018-07-23T07:54:16.419Z,25.33
2018-07-23T07:56:46.368Z,26.56
2018-07-23T07:59:16.386Z,26.89
2018-07-23T08:01:46.350Z,26.89
2018-07-23T08:04:16.511Z,27.97
2018-07-23T08:07:24.407Z,28.67
2018-07-23T08:09:54.395Z,30.11
2018-07-23T08:12:25.294Z,30.27
2018-07-23T08:14:55.385Z,30.92
2018-07-23T08:17:25.526Z,30.97
2018-07-23T08:19:55.757Z,29.05
2018-07-23T08:22:25.933Z,28.15
2018-07-23T08:24:56.086Z,28.08
2018-07-23T08:27:26.172Z,28.79
2018-07-23T08:29:56.238Z,29.45
2018-07-23T08:32:26.320Z,29.65
2018-07-23T08:34:56.355Z,30.46
2018-07-23T08:37:26.302Z,30.47
2018-07-23T08:39:56.343Z,29.78
2018-07-23T08:42:26.305Z,28.94
2018-07-23T08:44:56.521Z,29.80
2018-07-23T08:47:26.608Z,30.59
2018-07-23T08:49:56.860Z,30.45
2018-07-23T08:52:26.951Z,30.55
2018-07-23T08:54:57.053Z,31.49
2018-07-23T08:57:27.097Z,30.50
2018-07-23T08:59:57.137Z,30.46
2018-07-23T09:02:27.335Z,30.59
2018-07-23T09:04:57.573Z,31.27
2018-07-23T09:07:27.900Z,32.08
2018-07-23T09:09:58.180Z,30.82
2018-07-23T09:12:28.448Z,30.89
2018-07-23T09:14:58.697Z,29.93
2018-07-23T09:17:28.727Z,29.29
2018-07-23T09:19:58.720Z,28.71
2018-07-23T09:22:28.823Z,28.52
2018-07-23T09:24:58.939Z,27.81
2018-07-23T09:27:28.869Z,27.75
2018-07-23T09:29:58.804Z,27.80
2018-07-23T09:32:28.692Z,27.80
2018-07-23T09:34:58.740Z,28.07
2018-07-23T09:37:28.740Z,27.52
2018-07-23T09:39:58.660Z,26.80
2018-07-23T09:42:29.500Z,27.99
2018-07-23T09:44:59.667Z,29.80
2018-07-23T09:47:29.627Z,30.28
2018-07-23T09:49:59.590Z,31.51
2018-07-23T09:52:29.495Z,31.82
2018-07-23T09:55:00.442Z,31.85
2018-07-23T09:57:31.437Z,30.07
2018-07-23T10:00:02.185Z,30.52
2018-07-23T10:02:32.346Z,31.49
2018-07-23T10:05:08.013Z,31.30
2018-07-23T10:07:38.405Z,30.83
2018-07-23T10:10:09.668Z,30.97
2018-07-23T10:12:39.742Z,31.47
2018-07-23T10:15:10.493Z,30.82
2018-07-23T10:17:40.344Z,30.84
2018-07-23T10:20:10.573Z,31.27
2018-07-23T10:22:41.564Z,31.12
2018-07-23T10:25:15.545Z,30.82
2018-07-23T10:27:50.066Z,31.35
2018-07-23T10:30:26.411Z,31.47
2018-07-23T10:32:57.720Z,31.65
2018-07-23T10:35:27.855Z,31.31
2018-07-23T10:37:58.097Z,30.79
2018-07-23T10:40:28.756Z,30.95
2018-07-23T10:42:59.333Z,31.25
2018-07-23T10:45:32.321Z,29.91
2018-07-23T10:48:06.759Z,29.50
2018-07-23T10:50:36.792Z,28.87
2018-07-23T10:53:22.401Z,27.82
2018-07-23T10:55:52.636Z,28.58
2018-07-23T10:58:25.439Z,28.85
2018-07-23T11:00:55.526Z,28.94
2018-07-23T11:03:26.536Z,30.18
2018-07-23T11:05:59.440Z,31.57
2018-07-23T11:08:30.671Z,31.85
2018-07-23T11:11:00.819Z,31.84
2018-07-23T11:13:31.037Z,33.21
2018-07-23T11:16:03.269Z,33.45
2018-07-23T11:18:33.396Z,32.40
2018-07-23T11:21:03.478Z,31.02
2018-07-23T11:23:33.565Z,29.34
2018-07-23T11:26:03.696Z,28.59
2018-07-23T11:28:33.670Z,29.35
2018-07-23T11:31:03.921Z,29.02
2018-07-23T11:33:33.891Z,29.14
2018-07-23T11:36:04.061Z,29.42
2018-07-23T11:38:34.037Z,28.33
2018-07-23T11:41:04.228Z,28.08
2018-07-23T11:43:35.027Z,27.91
2018-07-23T11:46:05.839Z,28.24
2018-07-23T11:48:36.118Z,28.33
2018-07-23T11:51:06.713Z,28.32
2018-07-23T11:53:36.726Z,28.37
2018-07-23T11:56:08.051Z,29.66
2018-07-23T11:58:38.338Z,29.12
2018-07-23T12:01:09.438Z,28.64
2018-07-23T12:03:39.511Z,28.47
2018-07-23T12:06:10.505Z,28.25
2018-07-23T12:08:40.562Z,28.30
2018-07-23T12:11:10.961Z,28.62
2018-07-23T12:13:40.853Z,29.58
2018-07-23T12:16:11.062Z,29.92
2018-07-23T12:18:41.069Z,28.55
2018-07-23T12:21:11.303Z,28.05
2018-07-23T12:23:41.541Z,28.96
2018-07-23T12:26:11.785Z,29.09
2018-07-23T12:28:41.773Z,29.20
2018-07-23T12:31:11.746Z,29.13
2018-07-23T12:33:41.760Z,28.38
2018-07-23T12:36:11.886Z,28.18
2018-07-23T12:38:41.964Z,28.14
2018-07-23T12:41:12.224Z,28.12
2018-07-23T12:43:42.984Z,27.45
2018-07-23T12:46:13.004Z,26.78
2018-07-23T12:48:43.273Z,26.74
2018-07-23T12:51:13.806Z,27.52
2018-07-23T12:53:45.250Z,27.91
2018-07-23T12:56:15.416Z,28.43
2018-07-23T12:58:50.256Z,27.72
2018-07-23T13:01:20.621Z,28.17
2018-07-23T13:03:50.639Z,27.69
2018-07-23T13:06:20.916Z,27.99
2018-07-23T13:08:51.233Z,28.05
2018-07-23T13:32:33.476Z,29.79
2018-07-23T13:35:07.924Z,28.97
2018-07-23T13:37:38.883Z,27.72
2018-07-23T13:40:17.932Z,27.01
2018-07-23T13:42:52.313Z,26.99
2018-07-23T13:45:23.808Z,27.70
2018-07-23T13:47:54.252Z,27.95
2018-07-23T13:50:26.216Z,27.53
2018-07-23T13:52:56.532Z,27.36
2018-07-23T13:55:28.747Z,27.22
2018-07-23T13:57:59.857Z,27.57
2018-07-23T14:00:29.892Z,27.62
2018-07-23T14:03:00.176Z,27.83
2018-07-23T14:05:30.203Z,28.32
2018-07-23T14:08:00.236Z,28.52
2018-07-23T14:10:31.999Z,28.84
2018-07-23T14:13:02.095Z,28.76
2018-07-23T14:15:32.200Z,28.41
2018-07-23T14:18:02.173Z,28.09
2018-07-23T14:20:32.172Z,27.64
2018-07-23T14:23:08.453Z,27.39
2018-07-23T14:25:38.482Z,27.22
2018-07-23T14:28:09.240Z,27.52
2018-07-23T14:30:39.313Z,27.65
2018-07-23T14:33:10.047Z,27.74
2018-07-23T14:35:40.093Z,28.18
2018-07-23T14:38:11.365Z,28.04
2018-07-23T14:40:41.293Z,28.08
2018-07-23T14:43:11.376Z,27.49
2018-07-23T14:45:41.321Z,27.07
2018-07-23T14:48:11.288Z,27.07
2018-07-23T14:50:41.248Z,27.14
2018-07-23T14:53:11.114Z,27.21
2018-07-23T14:55:41.051Z,27.57
2018-07-23T14:58:11.049Z,27.01
2018-07-23T15:00:41.128Z,26.79
2018-07-23T15:03:11.126Z,26.77
2018-07-23T15:05:41.001Z,26.85
2018-07-23T15:08:11.246Z,26.90
2018-07-23T15:10:50.604Z,26.95
2018-07-23T15:13:30.972Z,27.15
2018-07-23T15:16:00.907Z,27.30
2018-07-23T15:18:30.923Z,26.72
2018-07-23T15:21:00.760Z,26.59
2018-07-23T15:23:30.674Z,26.62
2018-07-23T15:26:00.802Z,26.59
2018-07-23T15:28:30.772Z,26.64
2018-07-23T15:31:00.811Z,26.70
2018-07-23T15:33:30.860Z,26.81
2018-07-23T15:36:00.696Z,26.82
2018-07-23T15:38:31.466Z,26.82
2018-07-23T15:47:32.961Z,26.82
2018-07-23T15:50:24.838Z,26.65
2018-07-23T15:52:56.933Z,26.45
2018-07-23T15:55:27.057Z,26.31
2018-07-23T15:57:56.915Z,26.10
2018-07-23T16:00:28.173Z,25.89
2018-07-23T16:03:05.880Z,25.96
2018-07-23T16:05:36.745Z,26.05
2018-07-23T16:08:06.887Z,26.14
2018-07-23T16:10:39.240Z,26.11
2018-07-23T16:13:09.841Z,26.15
2018-07-23T16:15:39.714Z,26.22
2018-07-23T16:18:12.017Z,26.33
2018-07-23T16:20:42.261Z,26.36
2018-07-23T16:23:12.218Z,26.33
2018-07-23T16:25:42.869Z,26.23
2018-07-23T16:28:14.099Z,26.20
2018-07-23T16:30:45.428Z,26.12
2018-07-23T16:33:24.048Z,26.06
2018-07-23T16:36:05.728Z,26.11
2018-07-23T16:38:44.990Z,26.14
2018-07-23T16:41:25.112Z,26.06
2018-07-23T16:43:55.749Z,25.99
2018-07-23T16:46:26.222Z,25.96
2018-07-23T16:48:56.233Z,25.92
2018-07-23T16:51:26.256Z,25.90
2018-07-23T16:53:56.248Z,25.94
2018-07-23T16:56:26.386Z,25.93
2018-07-23T16:58:56.498Z,25.87
2018-07-23T17:01:26.529Z,25.86
2018-07-23T17:04:05.706Z,25.85
2018-07-23T17:06:36.884Z,25.83
2018-07-23T17:09:11.242Z,25.78
2018-07-23T17:11:41.383Z,25.75
2018-07-23T17:14:11.414Z,25.72
2018-07-23T17:16:41.342Z,25.74
2018-07-23T17:19:11.306Z,25.73
2018-07-23T17:21:51.042Z,25.71
2018-07-23T17:24:22.153Z,25.68
2018-07-23T17:26:52.008Z,25.71
2018-07-23T17:29:21.856Z,25.71
2018-07-23T17:31:51.993Z,25.65
2018-07-23T17:34:22.234Z,25.59
2018-07-23T17:36:52.416Z,25.55
2018-07-23T17:39:22.459Z,25.48
2018-07-23T17:41:52.443Z,25.47
2018-07-23T17:44:23.154Z,25.42
2018-07-23T17:46:53.153Z,25.40
2018-07-23T17:49:23.176Z,25.32
2018-07-23T17:51:53.226Z,25.26
2018-07-23T17:54:23.316Z,25.23
2018-07-23T17:56:53.259Z,25.20
2018-07-23T17:59:23.123Z,25.13
2018-07-23T18:01:53.011Z,25.23
2018-07-23T18:04:24.980Z,25.20
2018-07-23T18:06:54.912Z,25.15
2018-07-23T18:09:24.903Z,25.16
2018-07-23T18:11:54.951Z,25.13
2018-07-23T18:14:24.949Z,25.03
2018-07-23T18:16:54.817Z,24.95
2018-07-23T18:19:24.854Z,24.90
2018-07-23T18:21:54.862Z,24.84
2018-07-23T18:24:24.822Z,24.80
2018-07-23T18:26:54.892Z,24.78
2018-07-23T18:29:25.206Z,24.78
2018-07-23T18:31:55.525Z,24.78
2018-07-23T18:34:26.333Z,24.73
2018-07-23T18:36:56.871Z,24.69
2018-07-23T18:39:26.793Z,24.66
2018-07-23T18:46:30.472Z,24.40
2018-07-23T18:49:22.677Z,24.44
2018-07-23T18:51:53.880Z,24.40
2018-07-23T18:54:25.125Z,24.45
2018-07-23T18:56:56.371Z,24.28
2018-07-23T18:59:26.524Z,24.28
2018-07-23T19:01:57.292Z,24.24
2018-07-23T19:04:27.268Z,24.10
2018-07-23T19:06:57.198Z,23.99
2018-07-23T19:09:28.512Z,23.94
2018-07-23T19:11:59.094Z,23.99
2018-07-23T19:14:29.154Z,23.93
2018-07-23T19:17:00.061Z,23.70
2018-07-23T19:19:30.576Z,23.54
2018-07-23T19:22:00.652Z,23.45
2018-07-23T19:24:30.736Z,23.50
2018-07-23T19:27:01.017Z,23.53
2018-07-23T19:29:36.006Z,23.54
2018-07-23T19:32:06.141Z,23.59
2018-07-23T19:34:36.246Z,23.53
2018-07-23T19:37:06.455Z,23.51
2018-07-23T19:39:36.911Z,23.49
2018-07-23T19:42:08.601Z,23.38
2018-07-23T19:44:38.656Z,23.28
2018-07-23T19:47:09.943Z,23.33
2018-07-23T19:49:40.111Z,23.35
2018-07-23T19:52:10.790Z,23.22
2018-07-23T19:54:49.927Z,23.16
2018-07-23T19:57:26.698Z,23.14
2018-07-23T19:59:57.794Z,23.04
2018-07-23T20:02:27.734Z,23.02
2018-07-23T20:04:57.746Z,23.15
2018-07-23T20:07:27.907Z,23.11
2018-07-23T20:10:11.345Z,23.04
2018-07-23T20:34:23.839Z,22.58
2018-07-23T20:37:19.232Z,22.38
2018-07-23T20:40:04.113Z,22.35
2018-07-23T20:42:35.689Z,22.22
2018-07-23T20:45:05.772Z,22.26
2018-07-23T20:47:36.667Z,22.26
2018-07-23T20:50:35.564Z,22.16
2018-07-23T20:53:11.031Z,22.22
2018-07-23T20:59:23.023Z,22.29
2018-07-23T21:01:56.916Z,22.16
2018-07-23T21:10:22.329Z,21.96
2018-07-23T21:12:52.643Z,22.11
2018-07-23T21:16:11.577Z,22.18
2018-07-23T21:19:08.222Z,22.28
2018-07-23T21:22:09.755Z,22.30
2018-07-23T21:24:48.320Z,22.35
2018-07-23T21:27:25.047Z,22.37
2018-07-23T21:29:57.163Z,22.38
2018-07-23T21:32:30.840Z,22.44
2018-07-23T21:35:03.150Z,22.50
2018-07-23T21:43:36.783Z,22.50
2018-07-23T21:46:12.107Z,22.18
2018-07-23T21:48:52.433Z,22.12
2018-07-23T21:51:42.251Z,22.06
2018-07-23T21:54:20.595Z,22.10
2018-07-23T21:56:51.912Z,22.11
2018-07-23T21:59:26.129Z,22.10
2018-07-23T22:01:57.497Z,22.12
2018-07-23T22:04:29.764Z,22.07
2018-07-23T22:07:00.636Z,21.95
2018-07-23T22:09:31.422Z,21.95
2018-07-23T22:12:11.901Z,21.99
2018-07-23T22:14:45.613Z,22.06
2018-07-23T22:17:16.964Z,22.00
2018-07-23T22:19:53.857Z,21.92
2018-07-23T22:22:24.907Z,21.73
2018-07-23T22:25:07.774Z,21.63
2018-07-23T22:27:52.563Z,21.50
2018-07-23T22:30:26.919Z,21.59
2018-07-23T22:33:11.775Z,21.54
2018-07-23T22:35:43.140Z,21.46
2018-07-23T22:41:07.020Z,21.31
2018-07-23T22:43:39.281Z,21.22
2018-07-23T22:46:17.548Z,21.25
2018-07-23T22:48:48.168Z,21.24
2018-07-23T22:51:25.096Z,21.24
2018-07-23T22:54:12.161Z,21.29
2018-07-23T22:56:43.642Z,21.28
2018-07-23T22:59:14.283Z,21.20
2018-07-23T23:01:44.746Z,21.28
2018-07-23T23:04:15.716Z,21.19
2018-07-23T23:06:46.208Z,21.23
2018-07-23T23:09:22.299Z,21.24
2018-07-23T23:11:53.067Z,21.08
2018-07-23T23:14:32.997Z,21.03
2018-07-23T23:17:04.887Z,21.02
2018-07-23T23:19:37.663Z,20.96
2018-07-23T23:22:08.619Z,20.82
2018-07-23T23:24:38.620Z,20.86
2018-07-23T23:27:11.034Z,20.85
2018-07-23T23:29:42.031Z,20.81
2018-07-23T23:32:15.660Z,20.67
2018-07-23T23:34:46.080Z,20.68
2018-07-23T23:38:28.639Z,20.74
2018-07-23T23:41:07.179Z,20.81
2018-07-23T23:43:37.558Z,20.79
2018-07-23T23:46:10.448Z,20.69
2018-07-23T23:48:40.701Z,20.62
2018-07-23T23:51:11.196Z,20.61
2018-07-23T23:53:41.293Z,20.65
2018-07-23T23:56:11.926Z,20.62
2018-07-23T23:58:49.201Z,20.64
